Brownfield, ME (04010)

11:09 AM EST on February 07, 2016 (GMT -0500)
misty lane | | Change Station
CLOSE
Current Station
Personal Weather Station
Location: Brownfield, ME
Elevation: 404 ft
Nearby Weather Stations

Elev 404 ft 43.94 °N, 70.87 °W | Updated 13 minutes ago

Partly Cloudy
Partly Cloudy
40.9 °F
Feels Like 38 °F
N
4.0
Wind Variable Wind from NE
Gusts 15.0 mph

Today
High -- | Low -- °F
--% Chance of Precip.
Yesterday
High -- | Low -- °F
Precip. -- in
Pressure 30.13 in
Visibility 10.0 miles
Clouds Mostly Cloudy 5000 ft
Windchill 38 °F
Dew Point 23 °F
Humidity 50%
Rainfall 0.00 in
Snow Depth Not available.
6:54 AM 5:01 PM
Waning Crescent, 1% visible
METAR KIZG 071554Z AUTO 29006KT 10SM BKN050 05/M07 A3011 RMK AO2 SLP201 T00501067
Pressure 30.13 in
Visibility 10.0 miles
Clouds Mostly Cloudy 5000 ft
Windchill 38 °F
Dew Point 23 °F
Humidity 50%
Rainfall 0.00 in
Snow Depth Not available.
6:54 AM 5:01 PM
Waning Crescent, 1% visible
METAR KIZG 071554Z AUTO 29006KT 10SM BKN050 05/M07 A3011 RMK AO2 SLP201 T00501067

10-Day Weather Forecast

Almanac

Astronomy

Feb. 07, 2016 Rise Set
Actual Time
Civil Twilight
Nautical Twilight
Astronomical Twilight
Moon
Length of Visible Light
Length of Day
Tomorrow will be .
, % of the Moon is Illuminated

Today's Extremes

State Highs State Lows

Community

WunderPhotos

Upload Photos

1,891,218 photos uploaded!

WunderBlog® & News

Nearby

Air Quality

  Air Quality AQ Index Pollutant
Not available.

Snow Depth

Station Depth Elevation

Earthquake Activity

City Distance Mag. Time & Date
Minimum magnitude displayed is 2.5.

Coastal Water Temperatures

Place Temperature

Stations

Nearby Weather Stations

Station Location Temp. Windchill Dew Point Humidity Wind Precip. Elev Updated Type
                   

Watches & Warnings

There are currently no watches in effect.